WS78 weather

River Valley Airport
Rhinelander, Wisconsin, United States

Public forecast

Using degrees Fahrenheit for public forecast. Weather courtesy of forecast.io.

Closest aviation weather report (METAR) to River Valley Airport

Closest report is Rhinelander Oneida County Airport, 4.9 nm (9.1 km) N. Retrieved 2020/04/09 10:53 UTC (57 minutes ago):

KRHI 091053Z AUTO 29010G17KT 10SM CLR M02/M07 A2965 RMK AO2 SLP052 T10221067

Closest aviation forecast (TAF) to River Valley Airport

Closest forecast is Rhinelander Oneida County Airport, 4.9 nm (9.1 km) N. Retrieved 2020/04/09 06:22 UTC (5 hours ago):

TAF KRHI 090520Z 0906/1006 30008KT P6SM SCT100 FM090700 29010KT P6SM BKN028 FM090900 29012KT P6SM BKN030 FM091100 29013KT P6SM -SHSN BKN030 FM091400 30015G22KT P6SM -SHSN SCT025 BKN035 FM100000 32011G21KT P6SM BKN045